CheckWX is a tool to help pilots better visualize weather data.  It is not intended as a substitute for an official pre-flight weather briefing.

22:08:15 UTC

HEMM TAF
Mersa Matruh Airport
Mersa Matruh, Egypt
TAF HEMM 201700Z 2018/2124 08010KT CAVOK

Mar-20@
18:00 UTC

Mar-20 @ 18:00 UTC

Mar-22@
00:00 UTC

Mar-22 @ 00:00 UTC

TAF HEMM 201700Z 2018/2124 08010KT CAVOK
Wind
  • 080° at 10 KTS
Conditions
No significant weather
Cloud Levels
  • No significant clouds